Time;durP1;ratioP1;P1;durP2;ratioP2;P2;SDS_P1;SDS_P2;PMS_P1;PMS_P2;Temp;Humidity;BMP_temperature;BMP_pressure;BME280_temperature;BME280_humidity;BME280_pressure;Samples;Min_cycle;Max_cycle;Signal;HPM_P1;HPM_P2
2022/11/16 02:20:04;;;;;;;5.00;4.03;;;;;;;9.57;73.32;98844.13;10517928;23;20316;-89
2022/11/16 02:25:42;;;;;;;6.07;4.00;;;;;;;9.43;74.12;98849.38;10091314;29;20317;-90
2022/11/16 02:31:06;;;;;;;5.07;3.23;;;;;;;9.19;74.54;98847.59;10073735;29;20315;-88
2022/11/16 02:36:31;;;;;;;6.10;3.80;;;;;;;9.34;74.47;98838.34;10066839;29;20202;-87
2022/11/16 02:41:55;;;;;;;4.43;3.60;;;;;;;9.10;74.99;98842.16;10065978;29;20622;-90
2022/11/16 02:47:22;;;;;;;3.70;3.40;;;;;;;9.80;72.96;98836.66;10072664;29;20729;-89
2022/11/16 02:52:44;;;;;;;6.37;3.57;;;;;;;9.65;72.18;98860.03;10072628;29;20284;-87
2022/11/16 02:58:10;;;;;;;4.20;3.47;;;;;;;9.25;74.78;98862.19;10082538;29;20230;-90
2022/11/16 03:04:03;;;;;;;4.13;3.70;;;;;;;8.70;78.17;98852.72;10095614;29;20194;-92
2022/11/16 03:09:28;;;;;;;2.83;2.63;;;;;;;8.83;78.09;98851.47;10092805;29;20222;-85
2022/11/16 03:14:55;;;;;;;3.87;3.03;;;;;;;8.68;78.30;98838.19;10085714;29;20209;-91
2022/11/16 03:20:21;;;;;;;2.83;2.60;;;;;;;8.63;78.46;98830.03;10067100;29;20262;-89
2022/11/16 03:25:50;;;;;;;2.60;2.40;;;;;;;9.17;76.89;98819.03;10046383;29;20222;-90
2022/11/16 03:31:16;;;;;;;2.67;2.47;;;;;;;8.95;77.41;98819.66;10054611;29;20207;-90
2022/11/16 03:36:39;;;;;;;2.30;2.10;;;;;;;8.83;77.58;98817.75;10041964;29;20267;-91
2022/11/16 03:42:08;;;;;;;1.70;1.60;;;;;;;8.91;77.29;98804.69;10046514;29;20207;-84
2022/11/16 03:47:31;;;;;;;3.40;1.90;;;;;;;9.18;75.48;98805.78;10049406;29;20226;-90
2022/11/16 03:52:54;;;;;;;2.60;1.97;;;;;;;9.21;75.60;98800.25;10056031;29;20214;-89
2022/11/16 03:58:17;;;;;;;1.80;1.50;;;;;;;9.18;76.28;98792.53;10048527;29;20206;-90
2022/11/16 04:03:40;;;;;;;1.77;1.37;;;;;;;9.30;74.80;98797.25;10051640;29;20238;-89
2022/11/16 04:26:07;;;;;;;1.43;1.20;;;;;;;9.30;75.79;98830.97;10049661;29;20337;-91
2022/11/16 04:43:03;;;;;;;1.53;1.10;;;;;;;9.15;75.95;98841.06;10039058;29;20207;-90
2022/11/16 04:48:27;;;;;;;2.80;1.10;;;;;;;9.10;75.57;98844.97;10048075;29;20397;-89
2022/11/16 04:53:51;;;;;;;1.77;1.40;;;;;;;9.38;74.56;98844.88;10052901;29;20267;-90
2022/11/16 04:59:19;;;;;;;2.03;0.77;;;;;;;9.20;75.26;98848.41;10050505;29;20199;-91
2022/11/16 05:04:42;;;;;;;1.57;0.60;;;;;;;9.34;74.09;98848.78;10039044;29;20211;-81
2022/11/16 05:10:06;;;;;;;1.03;0.80;;;;;;;9.52;72.92;98844.41;10050696;29;20249;-88
2022/11/16 05:15:29;;;;;;;2.17;0.83;;;;;;;8.80;76.08;98854.97;10049794;29;20202;-89
2022/11/16 05:21:00;;;;;;;1.17;0.90;;;;;;;9.39;73.94;98851.31;10048125;29;20235;-90
2022/11/16 05:26:23;;;;;;;2.13;1.47;;;;;;;9.11;75.71;98845.78;10059719;29;20222;-91
2022/11/16 05:31:45;;;;;;;1.93;1.10;;;;;;;8.78;76.57;98849.72;10053726;29;20207;-89
2022/11/16 05:37:08;;;;;;;1.30;1.17;;;;;;;9.21;74.65;98861.28;10047665;29;20203;-92
2022/11/16 05:42:31;;;;;;;1.47;1.37;;;;;;;9.12;74.95;98853.84;10052123;29;20239;-88
2022/11/16 05:47:55;;;;;;;2.67;1.50;;;;;;;8.91;75.85;98872.94;10055192;29;20226;-91
2022/11/16 16:13:31;;;;;;;3.95;1.10;;;;;;;10.16;53.17;98879.69;11447702;23;20333;-80
2022/11/16 16:18:56;;;;;;;3.23;1.20;;;;;;;10.10;52.58;98872.72;10206812;28;20884;-79
2022/11/16 16:24:38;;;;;;;4.35;1.40;;;;;;;10.01;52.07;98858.03;10206528;28;20281;-82
2022/11/16 16:30:04;;;;;;;3.50;1.23;;;;;;;9.91;53.69;98851.00;10212978;28;20718;-81
2022/11/16 16:35:26;;;;;;;2.93;1.00;;;;;;;10.05;53.49;98839.22;10196228;28;20286;-81
2022/11/16 16:40:48;;;;;;;4.57;1.03;;;;;;;9.80;53.35;98833.03;10191201;29;20231;-81
2022/11/16 16:46:11;;;;;;;3.43;0.90;;;;;;;9.92;53.23;98834.88;10199827;29;20637;-79
2022/11/16 16:51:34;;;;;;;5.10;1.43;;;;;;;9.84;53.77;98834.75;10207056;28;20274;-81
2022/11/16 16:56:56;;;;;;;6.50;3.10;;;;;;;9.83;53.34;98832.28;10207353;28;20275;-82
2022/11/16 17:02:19;;;;;;;4.67;1.43;;;;;;;9.60;53.59;98846.19;10217689;29;20219;-82
2022/11/16 17:07:41;;;;;;;3.30;1.50;;;;;;;9.85;53.12;98841.19;10224864;28;20247;-80
2022/11/16 17:13:03;;;;;;;6.30;1.63;;;;;;;9.88;53.69;98834.00;10204644;28;20314;-81
2022/11/16 17:18:25;;;;;;;5.38;1.92;;;;;;;9.91;53.61;98827.66;10200422;29;20525;-82
2022/11/16 17:23:47;;;;;;;4.77;2.40;;;;;;;9.93;53.53;98820.44;10222414;29;20314;-82
2022/11/16 17:29:09;;;;;;;3.63;1.90;;;;;;;9.68;54.74;98828.34;10205441;29;20603;-82
2022/11/16 17:34:32;;;;;;;7.33;2.23;;;;;;;9.71;54.38;98821.97;10166166;29;20384;-82
2022/11/16 17:39:54;;;;;;;7.50;2.03;;;;;;;9.06;56.29;98813.13;10219611;29;20267;-81
2022/11/16 17:45:16;;;;;;;3.67;1.60;;;;;;;9.24;56.23;98818.41;10214515;29;20231;-80
2022/11/16 17:50:38;;;;;;;6.83;3.03;;;;;;;9.01;57.18;98810.59;10214249;29;20248;-82
2022/11/16 17:56:01;;;;;;;3.97;1.80;;;;;;;8.89;57.57;98793.81;10203919;29;20255;-82
2022/11/16 18:01:23;;;;;;;4.63;2.30;;;;;;;9.00;56.78;98803.34;10212485;29;20236;-83
2022/11/16 18:06:45;;;;;;;2.50;1.53;;;;;;;8.35;59.17;98808.41;10209442;29;20295;-79
2022/11/16 18:12:07;;;;;;;4.93;2.30;;;;;;;8.42;59.11;98808.59;10196547;29;20301;-81
2022/11/16 18:17:30;;;;;;;4.50;2.10;;;;;;;8.97;57.16;98806.88;10217262;29;20231;-79
2022/11/16 18:22:52;;;;;;;4.87;2.00;;;;;;;9.01;57.19;98795.72;10181157;29;20239;-80
2022/11/16 18:28:17;;;;;;;5.87;2.27;;;;;;;8.66;58.06;98785.19;10218146;28;20246;-79
2022/11/16 18:33:39;;;;;;;6.83;1.80;;;;;;;8.59;58.67;98784.16;10190214;29;20239;-81
2022/11/16 18:39:01;;;;;;;8.13;2.30;;;;;;;8.71;58.40;98775.69;10214364;29;20684;-79
2022/11/16 18:44:23;;;;;;;5.80;2.40;;;;;;;9.10;57.05;98762.63;10178973;29;20235;-81
2022/11/16 18:49:45;;;;;;;3.57;2.17;;;;;;;9.01;57.45;98762.00;10190683;29;20251;-82
2022/11/16 18:55:08;;;;;;;6.83;2.13;;;;;;;8.82;57.64;98756.31;10203511;29;20294;-81
2022/11/16 19:00:30;;;;;;;4.77;1.77;;;;;;;8.96;57.12;98754.66;10218809;29;20223;-82
2022/11/16 19:05:59;;;;;;;6.40;2.50;;;;;;;8.47;59.28;98758.97;10207026;29;20259;-85
2022/11/16 19:11:22;;;;;;;9.87;2.97;;;;;;;8.69;58.57;98758.38;10187090;29;21533;-81
2022/11/16 19:16:47;;;;;;;8.07;2.03;;;;;;;8.61;58.28;98753.72;10194814;29;20890;-79
2022/11/16 19:22:09;;;;;;;8.10;2.20;;;;;;;8.26;59.90;98764.78;10209596;29;20801;-79
2022/11/16 19:27:31;;;;;;;5.77;2.17;;;;;;;8.53;59.40;98758.31;10219894;29;20263;-79
2022/11/16 19:32:58;;;;;;;8.57;2.27;;;;;;;8.47;59.12;98751.34;10200334;29;20644;-80
2022/11/16 19:38:20;;;;;;;7.40;2.20;;;;;;;8.41;59.68;98742.38;10213826;29;20223;-79
2022/11/16 19:43:42;;;;;;;6.03;1.63;;;;;;;8.33;60.06;98742.56;10216713;29;20232;-84
2022/11/16 19:49:04;;;;;;;8.93;2.70;;;;;;;8.28;60.63;98746.41;10208783;29;20247;-84
2022/11/16 19:54:26;;;;;;;4.63;2.20;;;;;;;8.43;59.95;98742.84;10220467;29;20236;-84
2022/11/16 19:59:49;;;;;;;10.80;4.03;;;;;;;8.33;59.88;98743.38;10225252;29;20667;-83
2022/11/16 20:05:11;;;;;;;7.70;3.00;;;;;;;8.28;60.56;98734.38;10221717;29;20199;-85
2022/11/16 20:10:33;;;;;;;5.67;2.83;;;;;;;7.93;61.17;98721.00;10203539;29;20254;-85
2022/11/16 20:15:55;;;;;;;5.83;2.93;;;;;;;8.06;60.83;98708.53;10194781;29;21308;-86
2022/11/16 20:21:27;;;;;;;6.07;3.00;;;;;;;7.37;63.71;98703.25;10201381;29;20925;-84
2022/11/16 20:26:49;;;;;;;8.93;2.87;;;;;;;8.06;61.13;98688.09;10189401;29;20258;-84
2022/11/16 20:32:11;;;;;;;7.50;2.70;;;;;;;7.63;62.70;98686.06;10223299;29;20317;-82
2022/11/16 20:37:33;;;;;;;6.47;3.20;;;;;;;7.79;62.29;98681.31;10208232;29;20228;-82
2022/11/16 20:42:58;;;;;;;5.13;2.30;;;;;;;7.73;62.89;98672.31;10207394;29;20291;-83
2022/11/16 20:48:20;;;;;;;3.57;2.00;;;;;;;7.57;63.83;98670.66;10204373;29;20298;-85
2022/11/16 20:53:43;;;;;;;6.23;1.73;;;;;;;8.22;61.08;98655.25;10222845;28;20204;-87
2022/11/16 20:59:05;;;;;;;7.57;1.87;;;;;;;8.24;61.43;98646.44;10214934;29;20235;-87
2022/11/16 21:04:28;;;;;;;8.00;2.67;;;;;;;8.21;61.34;98639.59;10213797;29;20485;-82
2022/11/16 21:15:31;;;;;;;7.30;2.57;;;;;;;8.03;61.49;98638.28;10203378;29;20315;-88
2022/11/16 21:20:58;;;;;;;4.33;1.57;;;;;;;7.84;62.46;98629.78;10192477;29;20292;-81
2022/11/16 21:26:28;;;;;;;4.03;1.47;;;;;;;7.95;62.83;98625.25;10198765;29;20282;-87
2022/11/16 21:31:51;;;;;;;6.03;1.43;;;;;;;7.98;62.26;98614.09;10193631;29;20624;-87
2022/11/16 21:37:13;;;;;;;5.10;2.00;;;;;;;8.03;61.46;98604.63;10220194;29;20254;-86
2022/11/16 21:42:35;;;;;;;3.73;1.50;;;;;;;8.10;61.70;98582.34;10198196;29;20196;-82
2022/11/16 21:47:58;;;;;;;4.13;1.50;;;;;;;8.01;62.48;98567.69;10214366;29;20433;-84
2022/11/16 21:53:20;;;;;;;1.47;1.00;;;;;;;8.52;61.19;98553.72;10203445;29;20205;-84
2022/11/16 21:58:42;;;;;;;4.27;1.57;;;;;;;8.58;61.00;98543.84;10208571;29;20675;-85
2022/11/16 22:09:46;;;;;;;2.73;1.40;;;;;;;8.57;61.26;98534.59;10206165;29;20620;-84
2022/11/16 22:15:08;;;;;;;4.13;1.87;;;;;;;8.67;60.62;98527.63;10215056;29;20246;-84
2022/11/16 22:20:30;;;;;;;3.13;1.20;;;;;;;8.52;61.48;98525.63;10215284;29;20196;-86
2022/11/16 22:25:53;;;;;;;5.50;1.50;;;;;;;7.95;63.21;98513.88;10213175;29;20240;-86
2022/11/16 22:31:15;;;;;;;1.80;0.87;;;;;;;7.82;64.29;98500.28;10217000;29;20215;-85
2022/11/16 22:36:37;;;;;;;4.70;1.23;;;;;;;8.43;62.09;98492.97;10200840;29;20236;-85
2022/11/16 22:41:59;;;;;;;2.83;1.27;;;;;;;8.12;62.82;98472.56;10220341;29;20223;-84
2022/11/16 22:47:21;;;;;;;3.43;1.10;;;;;;;8.72;60.78;98454.31;10207471;29;20197;-84
2022/11/16 22:52:43;;;;;;;2.67;1.27;;;;;;;8.35;62.85;98456.69;10208871;29;20259;-84
2022/11/16 22:58:05;;;;;;;4.73;1.53;;;;;;;8.75;61.04;98442.31;10202220;29;20271;-83
2022/11/16 23:03:28;;;;;;;4.03;1.27;;;;;;;8.58;62.03;98425.91;10196804;29;20204;-80
2022/11/16 23:08:50;;;;;;;3.43;1.37;;;;;;;9.07;59.61;98418.50;10219518;29;20219;-85
2022/11/16 23:31:16;;;;;;;2.73;0.90;;;;;;;9.11;59.59;98379.22;10153038;29;20304;-81
2022/11/16 23:36:38;;;;;;;5.93;1.43;;;;;;;9.48;58.42;98371.06;10213567;29;20227;-84
2022/11/16 23:47:42;;;;;;;2.10;0.80;;;;;;;8.99;59.88;98340.88;10217781;29;20204;-87
2022/11/16 23:53:05;;;;;;;2.53;0.73;;;;;;;9.41;59.06;98334.34;10165587;29;20228;-81
2022/11/16 23:58:27;;;;;;;3.23;1.20;;;;;;;9.26;58.99;98324.09;10204455;29;20203;-85
